sensor_id;sensor_type;location;lat;lon;timestamp;temperature;humidity
2767;DHT22;1391;46.74287300;11.63683300;2023-03-03T00:00:14;1.10;74.30
2767;DHT22;1391;46.74287300;11.63683300;2023-03-03T00:02:42;1.40;73.60
2767;DHT22;1391;46.74287300;11.63683300;2023-03-03T00:05:09;1.10;74.70
2767;DHT22;1391;46.74287300;11.63683300;2023-03-03T00:07:42;0.70;75.80
2767;DHT22;1391;46.74287300;11.63683300;2023-03-03T00:10:10;0.90;77.40
2767;DHT22;1391;46.74287300;11.63683300;2023-03-03T00:12:45;0.90;77.30
2767;DHT22;1391;46.74287300;11.63683300;2023-03-03T00:15:19;1.10;77.30
2767;DHT22;1391;46.74287300;11.63683300;2023-03-03T00:17:47;0.60;75.00
2767;DHT22;1391;46.74287300;11.63683300;2023-03-03T00:20:36;0.60;78.70
2767;DHT22;1391;46.74287300;11.63683300;2023-03-03T00:23:28;0.60;79.60
2767;DHT22;1391;46.74287300;11.63683300;2023-03-03T00:25:57;0.80;81.40
2767;DHT22;1391;46.74287300;11.63683300;2023-03-03T00:28:28;0.70;80.10
2767;DHT22;1391;46.74287300;11.63683300;2023-03-03T00:30:59;1.30;80.50
2767;DHT22;1391;46.74287300;11.63683300;2023-03-03T00:33:30;0.90;79.40
2767;DHT22;1391;46.74287300;11.63683300;2023-03-03T00:36:20;1.40;80.20
2767;DHT22;1391;46.74287300;11.63683300;2023-03-03T00:38:53;1.20;79.20
2767;DHT22;1391;46.74287300;11.63683300;2023-03-03T00:41:23;1.10;76.50
2767;DHT22;1391;46.74287300;11.63683300;2023-03-03T00:43:52;0.80;78.70
2767;DHT22;1391;46.74287300;11.63683300;2023-03-03T00:46:22;0.60;81.00
2767;DHT22;1391;46.74287300;11.63683300;2023-03-03T00:48:50;0.50;82.00
2767;DHT22;1391;46.74287300;11.63683300;2023-03-03T00:51:26;0.50;82.20
2767;DHT22;1391;46.74287300;11.63683300;2023-03-03T00:53:55;0.90;82.20
2767;DHT22;1391;46.74287300;11.63683300;2023-03-03T00:56:23;0.70;81.40
2767;DHT22;1391;46.74287300;11.63683300;2023-03-03T00:58:51;1.10;81.00
2767;DHT22;1391;46.74287300;11.63683300;2023-03-03T01:01:19;0.80;80.20
2767;DHT22;1391;46.74287300;11.63683300;2023-03-03T01:03:50;0.60;78.90
2767;DHT22;1391;46.74287300;11.63683300;2023-03-03T01:06:17;0.50;79.90
2767;DHT22;1391;46.74287300;11.63683300;2023-03-03T01:08:44;0.40;80.90
2767;DHT22;1391;46.74287300;11.63683300;2023-03-03T01:11:15;0.60;80.80
2767;DHT22;1391;46.74287300;11.63683300;2023-03-03T01:13:47;0.10;82.10
2767;DHT22;1391;46.74287300;11.63683300;2023-03-03T01:16:15;0.60;84.00
2767;DHT22;1391;46.74287300;11.63683300;2023-03-03T01:18:44;0.70;83.70
2767;DHT22;1391;46.74287300;11.63683300;2023-03-03T01:21:12;0.30;82.80
2767;DHT22;1391;46.74287300;11.63683300;2023-03-03T01:23:39;0.40;83.60
2767;DHT22;1391;46.74287300;11.63683300;2023-03-03T01:26:07;0.50;84.10
2767;DHT22;1391;46.74287300;11.63683300;2023-03-03T01:28:34;0.30;82.60
2767;DHT22;1391;46.74287300;11.63683300;2023-03-03T01:31:03;-0.10;84.30
2767;DHT22;1391;46.74287300;11.63683300;2023-03-03T01:33:32;-0.10;86.70
2767;DHT22;1391;46.74287300;11.63683300;2023-03-03T01:36:03;0.60;87.60
2767;DHT22;1391;46.74287300;11.63683300;2023-03-03T01:38:32;0.90;86.80
2767;DHT22;1391;46.74287300;11.63683300;2023-03-03T01:41:01;0.30;83.80
2767;DHT22;1391;46.74287300;11.63683300;2023-03-03T01:43:31;-0.40;85.30
2767;DHT22;1391;46.74287300;11.63683300;2023-03-03T01:49:14;0.20;86.50
2767;DHT22;1391;46.74287300;11.63683300;2023-03-03T01:51:50;0.30;87.60
2767;DHT22;1391;46.74287300;11.63683300;2023-03-03T01:54:22;0.00;87.20
2767;DHT22;1391;46.74287300;11.63683300;2023-03-03T01:56:56;0.40;87.00
2767;DHT22;1391;46.74287300;11.63683300;2023-03-03T01:59:28;0.00;86.20
2767;DHT22;1391;46.74287300;11.63683300;2023-03-03T02:01:57;0.30;87.20
2767;DHT22;1391;46.74287300;11.63683300;2023-03-03T02:04:25;0.10;88.30
2767;DHT22;1391;46.74287300;11.63683300;2023-03-03T02:06:57;-0.20;87.40
2767;DHT22;1391;46.74287300;11.63683300;2023-03-03T02:09:33;-0.10;88.90
2767;DHT22;1391;46.74287300;11.63683300;2023-03-03T02:12:07;0.20;89.70
2767;DHT22;1391;46.74287300;11.63683300;2023-03-03T02:14:37;0.00;89.60
2767;DHT22;1391;46.74287300;11.63683300;2023-03-03T02:17:05;0.10;88.50
2767;DHT22;1391;46.74287300;11.63683300;2023-03-03T02:19:41;0.00;88.60
2767;DHT22;1391;46.74287300;11.63683300;2023-03-03T02:22:16;0.00;87.80
2767;DHT22;1391;46.74287300;11.63683300;2023-03-03T02:24:51;0.20;88.60
2767;DHT22;1391;46.74287300;11.63683300;2023-03-03T02:27:22;0.00;88.80
2767;DHT22;1391;46.74287300;11.63683300;2023-03-03T02:40:31;0.00;88.70
2767;DHT22;1391;46.74287300;11.63683300;2023-03-03T02:43:04;-0.20;87.50
2767;DHT22;1391;46.74287300;11.63683300;2023-03-03T02:45:33;-0.20;89.00
2767;DHT22;1391;46.74287300;11.63683300;2023-03-03T02:48:00;0.20;90.00
2767;DHT22;1391;46.74287300;11.63683300;2023-03-03T02:50:27;0.00;90.10
2767;DHT22;1391;46.74287300;11.63683300;2023-03-03T02:52:55;0.00;90.10
2767;DHT22;1391;46.74287300;11.63683300;2023-03-03T02:55:22;0.00;90.30
2767;DHT22;1391;46.74287300;11.63683300;2023-03-03T02:57:51;0.40;90.20
2767;DHT22;1391;46.74287300;11.63683300;2023-03-03T03:00:18;-0.30;87.30
2767;DHT22;1391;46.74287300;11.63683300;2023-03-03T03:03:03;-0.10;89.00
2767;DHT22;1391;46.74287300;11.63683300;2023-03-03T03:05:31;-0.20;89.50
2767;DHT22;1391;46.74287300;11.63683300;2023-03-03T03:07:58;0.10;89.20
2767;DHT22;1391;46.74287300;11.63683300;2023-03-03T03:10:25;-0.10;87.30
2767;DHT22;1391;46.74287300;11.63683300;2023-03-03T03:12:54;0.00;88.70
2767;DHT22;1391;46.74287300;11.63683300;2023-03-03T03:15:21;0.30;89.50
2767;DHT22;1391;46.74287300;11.63683300;2023-03-03T03:17:49;-0.30;88.60
2767;DHT22;1391;46.74287300;11.63683300;2023-03-03T03:20:16;-0.30;89.40
2767;DHT22;1391;46.74287300;11.63683300;2023-03-03T03:22:44;0.00;89.00
2767;DHT22;1391;46.74287300;11.63683300;2023-03-03T03:25:11;-0.10;89.40
2767;DHT22;1391;46.74287300;11.63683300;2023-03-03T03:27:38;-0.40;89.50
2767;DHT22;1391;46.74287300;11.63683300;2023-03-03T03:30:09;-0.10;90.40
2767;DHT22;1391;46.74287300;11.63683300;2023-03-03T03:32:37;-0.30;88.90
2767;DHT22;1391;46.74287300;11.63683300;2023-03-03T03:35:06;0.00;88.10
2767;DHT22;1391;46.74287300;11.63683300;2023-03-03T03:37:36;-0.60;90.00
2767;DHT22;1391;46.74287300;11.63683300;2023-03-03T03:40:04;-0.40;90.70
2767;DHT22;1391;46.74287300;11.63683300;2023-03-03T03:42:32;-0.30;91.00
2767;DHT22;1391;46.74287300;11.63683300;2023-03-03T03:44:59;-0.40;91.10
2767;DHT22;1391;46.74287300;11.63683300;2023-03-03T03:47:28;-0.10;91.30
2767;DHT22;1391;46.74287300;11.63683300;2023-03-03T03:49:57;-0.40;90.80
2767;DHT22;1391;46.74287300;11.63683300;2023-03-03T03:52:24;-0.30;90.60
2767;DHT22;1391;46.74287300;11.63683300;2023-03-03T03:54:52;-0.30;90.00
2767;DHT22;1391;46.74287300;11.63683300;2023-03-03T03:57:19;-0.40;89.90
2767;DHT22;1391;46.74287300;11.63683300;2023-03-03T03:59:49;-0.40;91.20
2767;DHT22;1391;46.74287300;11.63683300;2023-03-03T04:02:18;-0.30;91.90
2767;DHT22;1391;46.74287300;11.63683300;2023-03-03T04:04:47;-0.20;91.00
2767;DHT22;1391;46.74287300;11.63683300;2023-03-03T04:07:15;-0.60;91.30
2767;DHT22;1391;46.74287300;11.63683300;2023-03-03T04:09:42;-0.40;91.40
2767;DHT22;1391;46.74287300;11.63683300;2023-03-03T04:12:10;-0.30;91.50
2767;DHT22;1391;46.74287300;11.63683300;2023-03-03T04:14:37;-0.10;91.40
2767;DHT22;1391;46.74287300;11.63683300;2023-03-03T04:17:05;-0.30;91.30
2767;DHT22;1391;46.74287300;11.63683300;2023-03-03T04:19:33;-0.40;91.70
2767;DHT22;1391;46.74287300;11.63683300;2023-03-03T04:22:02;-0.40;90.90
2767;DHT22;1391;46.74287300;11.63683300;2023-03-03T04:24:31;-0.30;91.80
2767;DHT22;1391;46.74287300;11.63683300;2023-03-03T04:26:59;-0.40;92.00
2767;DHT22;1391;46.74287300;11.63683300;2023-03-03T04:29:26;-0.60;91.40
2767;DHT22;1391;46.74287300;11.63683300;2023-03-03T04:31:54;-0.60;92.00
2767;DHT22;1391;46.74287300;11.63683300;2023-03-03T04:34:21;-0.60;92.70
2767;DHT22;1391;46.74287300;11.63683300;2023-03-03T04:36:49;-0.50;93.30
2767;DHT22;1391;46.74287300;11.63683300;2023-03-03T04:39:18;-0.10;93.70
2767;DHT22;1391;46.74287300;11.63683300;2023-03-03T04:41:46;-0.50;92.80
2767;DHT22;1391;46.74287300;11.63683300;2023-03-03T04:44:14;-0.20;92.90
2767;DHT22;1391;46.74287300;11.63683300;2023-03-03T04:46:42;-0.60;92.70
2767;DHT22;1391;46.74287300;11.63683300;2023-03-03T04:49:20;-0.70;92.80
2767;DHT22;1391;46.74287300;11.63683300;2023-03-03T04:52:04;-0.60;92.30
2767;DHT22;1391;46.74287300;11.63683300;2023-03-03T04:54:33;-0.60;92.90
2767;DHT22;1391;46.74287300;11.63683300;2023-03-03T04:57:11;-0.60;93.10
2767;DHT22;1391;46.74287300;11.63683300;2023-03-03T04:59:44;-0.80;91.40
2767;DHT22;1391;46.74287300;11.63683300;2023-03-03T05:02:26;-0.60;93.40
2767;DHT22;1391;46.74287300;11.63683300;2023-03-03T05:04:54;-0.40;93.70
2767;DHT22;1391;46.74287300;11.63683300;2023-03-03T05:07:22;-0.60;93.70
2767;DHT22;1391;46.74287300;11.63683300;2023-03-03T05:09:52;-0.60;92.30
2767;DHT22;1391;46.74287300;11.63683300;2023-03-03T05:12:19;-0.60;92.20
2767;DHT22;1391;46.74287300;11.63683300;2023-03-03T05:14:46;-0.90;92.10
2767;DHT22;1391;46.74287300;11.63683300;2023-03-03T05:17:14;-0.80;92.30
2767;DHT22;1391;46.74287300;11.63683300;2023-03-03T05:19:42;-0.60;92.80
2767;DHT22;1391;46.74287300;11.63683300;2023-03-03T05:22:09;-0.50;93.00
2767;DHT22;1391;46.74287300;11.63683300;2023-03-03T05:24:37;-0.60;93.00
2767;DHT22;1391;46.74287300;11.63683300;2023-03-03T05:27:06;-0.60;92.90
2767;DHT22;1391;46.74287300;11.63683300;2023-03-03T05:29:37;-0.80;92.70
2767;DHT22;1391;46.74287300;11.63683300;2023-03-03T05:32:09;-0.70;93.30
2767;DHT22;1391;46.74287300;11.63683300;2023-03-03T05:34:37;-0.40;93.80
2767;DHT22;1391;46.74287300;11.63683300;2023-03-03T05:37:04;-0.90;92.40
2767;DHT22;1391;46.74287300;11.63683300;2023-03-03T05:39:32;-0.70;93.30
2767;DHT22;1391;46.74287300;11.63683300;2023-03-03T05:42:01;-0.70;93.60
2767;DHT22;1391;46.74287300;11.63683300;2023-03-03T05:44:30;-0.60;93.10
2767;DHT22;1391;46.74287300;11.63683300;2023-03-03T05:46:57;-1.00;92.80
2767;DHT22;1391;46.74287300;11.63683300;2023-03-03T05:49:25;-0.60;92.90
2767;DHT22;1391;46.74287300;11.63683300;2023-03-03T05:51:52;-0.60;93.30
2767;DHT22;1391;46.74287300;11.63683300;2023-03-03T05:54:20;-0.60;92.50
2767;DHT22;1391;46.74287300;11.63683300;2023-03-03T05:56:48;-0.70;92.10
2767;DHT22;1391;46.74287300;11.63683300;2023-03-03T05:59:15;-0.60;93.20
2767;DHT22;1391;46.74287300;11.63683300;2023-03-03T06:01:45;-0.60;93.40
2767;DHT22;1391;46.74287300;11.63683300;2023-03-03T06:04:12;-0.80;93.20
2767;DHT22;1391;46.74287300;11.63683300;2023-03-03T06:06:40;-0.60;93.70
2767;DHT22;1391;46.74287300;11.63683300;2023-03-03T06:09:07;-0.60;93.70
2767;DHT22;1391;46.74287300;11.63683300;2023-03-03T06:11:35;-0.60;93.90
2767;DHT22;1391;46.74287300;11.63683300;2023-03-03T06:14:03;-0.70;93.80
2767;DHT22;1391;46.74287300;11.63683300;2023-03-03T06:16:31;-0.60;93.90
2767;DHT22;1391;46.74287300;11.63683300;2023-03-03T06:19:08;-0.70;93.50
2767;DHT22;1391;46.74287300;11.63683300;2023-03-03T06:21:36;-0.70;93.80
2767;DHT22;1391;46.74287300;11.63683300;2023-03-03T06:24:04;-0.60;94.10
2767;DHT22;1391;46.74287300;11.63683300;2023-03-03T06:26:33;-0.80;93.80
2767;DHT22;1391;46.74287300;11.63683300;2023-03-03T06:29:01;-0.60;94.40
2767;DHT22;1391;46.74287300;11.63683300;2023-03-03T06:31:28;-0.60;94.30
2767;DHT22;1391;46.74287300;11.63683300;2023-03-03T06:33:55;-0.70;94.10
2767;DHT22;1391;46.74287300;11.63683300;2023-03-03T06:36:24;-0.40;94.20
2767;DHT22;1391;46.74287300;11.63683300;2023-03-03T06:38:51;-0.50;94.00
2767;DHT22;1391;46.74287300;11.63683300;2023-03-03T06:41:19;-0.40;93.90
2767;DHT22;1391;46.74287300;11.63683300;2023-03-03T06:43:46;-0.40;93.50
2767;DHT22;1391;46.74287300;11.63683300;2023-03-03T06:46:14;0.20;93.70
2767;DHT22;1391;46.74287300;11.63683300;2023-03-03T06:48:42;-0.40;93.10
2767;DHT22;1391;46.74287300;11.63683300;2023-03-03T06:51:19;-0.40;92.90
2767;DHT22;1391;46.74287300;11.63683300;2023-03-03T06:53:52;-0.30;91.80
2767;DHT22;1391;46.74287300;11.63683300;2023-03-03T06:56:22;0.20;93.10
2767;DHT22;1391;46.74287300;11.63683300;2023-03-03T06:58:52;-0.10;93.00
2767;DHT22;1391;46.74287300;11.63683300;2023-03-03T07:01:21;-0.10;92.80
2767;DHT22;1391;46.74287300;11.63683300;2023-03-03T07:03:48;0.00;92.50
2767;DHT22;1391;46.74287300;11.63683300;2023-03-03T07:06:20;0.00;92.20
2767;DHT22;1391;46.74287300;11.63683300;2023-03-03T07:08:51;0.50;92.20
2767;DHT22;1391;46.74287300;11.63683300;2023-03-03T07:11:20;0.40;91.50
2767;DHT22;1391;46.74287300;11.63683300;2023-03-03T07:13:50;1.00;90.50
2767;DHT22;1391;46.74287300;11.63683300;2023-03-03T07:16:23;1.10;91.20
2767;DHT22;1391;46.74287300;11.63683300;2023-03-03T07:18:54;1.70;90.10
2767;DHT22;1391;46.74287300;11.63683300;2023-03-03T07:21:33;1.80;83.20
2767;DHT22;1391;46.74287300;11.63683300;2023-03-03T07:24:30;2.40;82.30
2767;DHT22;1391;46.74287300;11.63683300;2023-03-03T07:27:22;2.50;79.10
2767;DHT22;1391;46.74287300;11.63683300;2023-03-03T07:30:11;2.90;75.70
2767;DHT22;1391;46.74287300;11.63683300;2023-03-03T07:32:49;2.90;74.50
2767;DHT22;1391;46.74287300;11.63683300;2023-03-03T07:35:38;3.40;73.50
2767;DHT22;1391;46.74287300;11.63683300;2023-03-03T07:41:54;3.70;73.00
2767;DHT22;1391;46.74287300;11.63683300;2023-03-03T07:44:33;4.10;65.70
2767;DHT22;1391;46.74287300;11.63683300;2023-03-03T07:47:17;4.60;64.00
2767;DHT22;1391;46.74287300;11.63683300;2023-03-03T07:49:49;4.70;64.30
2767;DHT22;1391;46.74287300;11.63683300;2023-03-03T07:52:49;4.50;60.70
2767;DHT22;1391;46.74287300;11.63683300;2023-03-03T07:55:45;4.70;59.20
2767;DHT22;1391;46.74287300;11.63683300;2023-03-03T07:59:24;5.40;62.30
2767;DHT22;1391;46.74287300;11.63683300;2023-03-03T08:01:56;6.60;54.30
2767;DHT22;1391;46.74287300;11.63683300;2023-03-03T08:04:31;5.80;54.00
2767;DHT22;1391;46.74287300;11.63683300;2023-03-03T08:07:11;5.30;56.40
2767;DHT22;1391;46.74287300;11.63683300;2023-03-03T08:09:48;5.70;54.40
2767;DHT22;1391;46.74287300;11.63683300;2023-03-03T08:12:38;5.80;50.30
2767;DHT22;1391;46.74287300;11.63683300;2023-03-03T08:15:20;6.60;50.70
2767;DHT22;1391;46.74287300;11.63683300;2023-03-03T08:17:50;6.60;49.60
2767;DHT22;1391;46.74287300;11.63683300;2023-03-03T08:20:46;6.60;48.10
2767;DHT22;1391;46.74287300;11.63683300;2023-03-03T08:23:16;6.80;46.80
2767;DHT22;1391;46.74287300;11.63683300;2023-03-03T08:25:46;6.90;43.80
2767;DHT22;1391;46.74287300;11.63683300;2023-03-03T08:28:15;7.60;45.40
2767;DHT22;1391;46.74287300;11.63683300;2023-03-03T08:30:45;7.60;42.20
2767;DHT22;1391;46.74287300;11.63683300;2023-03-03T08:33:13;8.20;42.10
2767;DHT22;1391;46.74287300;11.63683300;2023-03-03T08:35:44;7.50;42.60
2767;DHT22;1391;46.74287300;11.63683300;2023-03-03T08:38:13;8.00;39.50
2767;DHT22;1391;46.74287300;11.63683300;2023-03-03T08:40:42;7.90;39.40
2767;DHT22;1391;46.74287300;11.63683300;2023-03-03T08:43:11;8.40;37.70
2767;DHT22;1391;46.74287300;11.63683300;2023-03-03T08:45:43;9.00;37.30
2767;DHT22;1391;46.74287300;11.63683300;2023-03-03T08:48:12;8.90;35.20
2767;DHT22;1391;46.74287300;11.63683300;2023-03-03T08:50:41;8.90;37.00
2767;DHT22;1391;46.74287300;11.63683300;2023-03-03T08:53:24;8.50;36.30
2767;DHT22;1391;46.74287300;11.63683300;2023-03-03T09:00:33;8.60;33.50
2767;DHT22;1391;46.74287300;11.63683300;2023-03-03T09:03:02;8.70;33.80
2767;DHT22;1391;46.74287300;11.63683300;2023-03-03T09:05:37;9.70;33.00
2767;DHT22;1391;46.74287300;11.63683300;2023-03-03T09:13:21;9.50;31.30
2767;DHT22;1391;46.74287300;11.63683300;2023-03-03T09:15:49;8.80;31.60
2767;DHT22;1391;46.74287300;11.63683300;2023-03-03T09:18:24;9.00;31.80
2767;DHT22;1391;46.74287300;11.63683300;2023-03-03T09:21:20;7.90;34.00
2767;DHT22;1391;46.74287300;11.63683300;2023-03-03T09:23:53;7.90;34.50
2767;DHT22;1391;46.74287300;11.63683300;2023-03-03T09:26:27;8.00;33.50
2767;DHT22;1391;46.74287300;11.63683300;2023-03-03T09:29:03;7.60;34.00
2767;DHT22;1391;46.74287300;11.63683300;2023-03-03T09:31:42;8.00;33.80
2767;DHT22;1391;46.74287300;11.63683300;2023-03-03T09:34:22;8.30;35.80
2767;DHT22;1391;46.74287300;11.63683300;2023-03-03T09:36:52;8.40;34.00
2767;DHT22;1391;46.74287300;11.63683300;2023-03-03T09:39:22;8.80;30.20
2767;DHT22;1391;46.74287300;11.63683300;2023-03-03T09:50:25;9.20;30.00
2767;DHT22;1391;46.74287300;11.63683300;2023-03-03T09:53:10;9.60;28.60
2767;DHT22;1391;46.74287300;11.63683300;2023-03-03T09:55:50;10.50;27.60
2767;DHT22;1391;46.74287300;11.63683300;2023-03-03T10:01:32;11.30;25.30
2767;DHT22;1391;46.74287300;11.63683300;2023-03-03T10:04:41;11.40;25.50
2767;DHT22;1391;46.74287300;11.63683300;2023-03-03T10:07:43;11.40;23.60
2767;DHT22;1391;46.74287300;11.63683300;2023-03-03T10:10:27;11.40;23.80
2767;DHT22;1391;46.74287300;11.63683300;2023-03-03T10:13:11;12.00;23.20
2767;DHT22;1391;46.74287300;11.63683300;2023-03-03T10:15:51;11.50;23.80
2767;DHT22;1391;46.74287300;11.63683300;2023-03-03T10:18:29;11.60;25.00
2767;DHT22;1391;46.74287300;11.63683300;2023-03-03T10:21:07;12.20;24.60
2767;DHT22;1391;46.74287300;11.63683300;2023-03-03T10:23:53;12.20;21.70
2767;DHT22;1391;46.74287300;11.63683300;2023-03-03T10:26:33;13.00;21.50
2767;DHT22;1391;46.74287300;11.63683300;2023-03-03T10:29:20;12.50;21.10
2767;DHT22;1391;46.74287300;11.63683300;2023-03-03T10:32:02;13.10;20.40
2767;DHT22;1391;46.74287300;11.63683300;2023-03-03T10:37:47;13.30;19.70
2767;DHT22;1391;46.74287300;11.63683300;2023-03-03T10:40:30;12.00;20.20
2767;DHT22;1391;46.74287300;11.63683300;2023-03-03T10:43:15;11.80;24.30
2767;DHT22;1391;46.74287300;11.63683300;2023-03-03T10:46:13;12.40;22.10
2767;DHT22;1391;46.74287300;11.63683300;2023-03-03T10:52:16;12.60;22.00
2767;DHT22;1391;46.74287300;11.63683300;2023-03-03T10:54:59;12.70;21.80
2767;DHT22;1391;46.74287300;11.63683300;2023-03-03T10:58:08;12.00;19.90
2767;DHT22;1391;46.74287300;11.63683300;2023-03-03T11:00:58;11.70;21.10
2767;DHT22;1391;46.74287300;11.63683300;2023-03-03T11:03:43;11.60;21.10
2767;DHT22;1391;46.74287300;11.63683300;2023-03-03T11:06:22;11.50;21.00
2767;DHT22;1391;46.74287300;11.63683300;2023-03-03T11:08:54;12.20;21.80
2767;DHT22;1391;46.74287300;11.63683300;2023-03-03T11:11:30;12.60;20.70
2767;DHT22;1391;46.74287300;11.63683300;2023-03-03T11:14:11;13.30;19.60
2767;DHT22;1391;46.74287300;11.63683300;2023-03-03T11:16:48;13.10;18.40
2767;DHT22;1391;46.74287300;11.63683300;2023-03-03T11:19:39;13.50;19.40
2767;DHT22;1391;46.74287300;11.63683300;2023-03-03T11:22:37;13.60;19.90
2767;DHT22;1391;46.74287300;11.63683300;2023-03-03T11:25:21;13.60;18.10
2767;DHT22;1391;46.74287300;11.63683300;2023-03-03T11:28:04;13.60;16.30
2767;DHT22;1391;46.74287300;11.63683300;2023-03-03T11:30:53;13.10;18.60
2767;DHT22;1391;46.74287300;11.63683300;2023-03-03T11:33:34;13.50;16.50
2767;DHT22;1391;46.74287300;11.63683300;2023-03-03T11:36:11;12.70;19.20
2767;DHT22;1391;46.74287300;11.63683300;2023-03-03T11:38:47;12.70;19.70
2767;DHT22;1391;46.74287300;11.63683300;2023-03-03T11:41:25;13.10;19.70
2767;DHT22;1391;46.74287300;11.63683300;2023-03-03T11:44:02;13.80;18.80
2767;DHT22;1391;46.74287300;11.63683300;2023-03-03T11:46:39;13.00;16.60
2767;DHT22;1391;46.74287300;11.63683300;2023-03-03T11:49:16;13.10;18.30
2767;DHT22;1391;46.74287300;11.63683300;2023-03-03T11:51:52;12.80;18.50
2767;DHT22;1391;46.74287300;11.63683300;2023-03-03T11:54:29;12.60;19.60
2767;DHT22;1391;46.74287300;11.63683300;2023-03-03T11:57:09;12.60;18.00
2767;DHT22;1391;46.74287300;11.63683300;2023-03-03T12:00:24;12.90;19.40
2767;DHT22;1391;46.74287300;11.63683300;2023-03-03T12:05:56;12.90;17.90
2767;DHT22;1391;46.74287300;11.63683300;2023-03-03T12:08:38;12.40;19.30
2767;DHT22;1391;46.74287300;11.63683300;2023-03-03T12:11:26;12.50;18.90
2767;DHT22;1391;46.74287300;11.63683300;2023-03-03T12:13:59;13.00;18.50
2767;DHT22;1391;46.74287300;11.63683300;2023-03-03T12:16:37;12.60;18.80
2767;DHT22;1391;46.74287300;11.63683300;2023-03-03T12:19:24;12.10;18.90
2767;DHT22;1391;46.74287300;11.63683300;2023-03-03T12:25:21;12.00;18.70
2767;DHT22;1391;46.74287300;11.63683300;2023-03-03T12:27:59;12.40;19.40
2767;DHT22;1391;46.74287300;11.63683300;2023-03-03T12:30:56;12.20;18.00
2767;DHT22;1391;46.74287300;11.63683300;2023-03-03T12:33:41;12.20;18.50
2767;DHT22;1391;46.74287300;11.63683300;2023-03-03T12:36:36;12.20;19.40
2767;DHT22;1391;46.74287300;11.63683300;2023-03-03T12:39:29;12.30;18.60
2767;DHT22;1391;46.74287300;11.63683300;2023-03-03T12:42:11;12.70;18.80
2767;DHT22;1391;46.74287300;11.63683300;2023-03-03T12:44:48;12.90;18.10
2767;DHT22;1391;46.74287300;11.63683300;2023-03-03T12:47:27;12.90;18.20
2767;DHT22;1391;46.74287300;11.63683300;2023-03-03T12:50:08;12.50;16.70
2767;DHT22;1391;46.74287300;11.63683300;2023-03-03T12:52:53;12.50;18.30
2767;DHT22;1391;46.74287300;11.63683300;2023-03-03T12:55:35;12.40;17.30
2767;DHT22;1391;46.74287300;11.63683300;2023-03-03T12:58:13;12.60;18.30
2767;DHT22;1391;46.74287300;11.63683300;2023-03-03T13:00:54;12.60;17.00
2767;DHT22;1391;46.74287300;11.63683300;2023-03-03T13:03:37;12.80;17.70
2767;DHT22;1391;46.74287300;11.63683300;2023-03-03T13:06:16;13.50;18.30
2767;DHT22;1391;46.74287300;11.63683300;2023-03-03T13:09:01;13.80;18.40
2767;DHT22;1391;46.74287300;11.63683300;2023-03-03T13:11:45;13.50;19.10
2767;DHT22;1391;46.74287300;11.63683300;2023-03-03T13:14:28;13.50;18.90
2767;DHT22;1391;46.74287300;11.63683300;2023-03-03T13:17:06;14.30;17.60
2767;DHT22;1391;46.74287300;11.63683300;2023-03-03T13:19:45;14.20;16.30
2767;DHT22;1391;46.74287300;11.63683300;2023-03-03T13:22:19;14.10;15.50
2767;DHT22;1391;46.74287300;11.63683300;2023-03-03T13:25:02;14.20;15.70
2767;DHT22;1391;46.74287300;11.63683300;2023-03-03T13:27:36;14.40;14.50
2767;DHT22;1391;46.74287300;11.63683300;2023-03-03T13:30:15;14.00;15.30
2767;DHT22;1391;46.74287300;11.63683300;2023-03-03T13:32:48;14.00;14.50
2767;DHT22;1391;46.74287300;11.63683300;2023-03-03T13:35:28;14.10;14.10
2767;DHT22;1391;46.74287300;11.63683300;2023-03-03T13:38:01;14.00;14.40
2767;DHT22;1391;46.74287300;11.63683300;2023-03-03T13:40:38;14.50;13.20
2767;DHT22;1391;46.74287300;11.63683300;2023-03-03T13:43:14;14.50;12.10
2767;DHT22;1391;46.74287300;11.63683300;2023-03-03T13:45:53;14.90;12.70
2767;DHT22;1391;46.74287300;11.63683300;2023-03-03T13:48:36;14.50;13.60
2767;DHT22;1391;46.74287300;11.63683300;2023-03-03T13:51:22;14.50;14.70
2767;DHT22;1391;46.74287300;11.63683300;2023-03-03T13:54:02;14.20;12.10
2767;DHT22;1391;46.74287300;11.63683300;2023-03-03T13:56:46;14.00;14.90
2767;DHT22;1391;46.74287300;11.63683300;2023-03-03T13:59:29;14.20;13.90
2767;DHT22;1391;46.74287300;11.63683300;2023-03-03T14:02:15;13.70;13.00
2767;DHT22;1391;46.74287300;11.63683300;2023-03-03T14:04:55;13.60;16.20
2767;DHT22;1391;46.74287300;11.63683300;2023-03-03T14:07:35;13.50;15.20
2767;DHT22;1391;46.74287300;11.63683300;2023-03-03T14:10:09;13.60;12.80
2767;DHT22;1391;46.74287300;11.63683300;2023-03-03T14:12:48;13.50;15.10
2767;DHT22;1391;46.74287300;11.63683300;2023-03-03T14:15:24;13.60;14.70
2767;DHT22;1391;46.74287300;11.63683300;2023-03-03T14:18:04;13.80;14.50
2767;DHT22;1391;46.74287300;11.63683300;2023-03-03T14:20:45;13.40;14.20
2767;DHT22;1391;46.74287300;11.63683300;2023-03-03T14:23:18;13.50;14.50
2767;DHT22;1391;46.74287300;11.63683300;2023-03-03T14:25:57;13.50;14.50
2767;DHT22;1391;46.74287300;11.63683300;2023-03-03T14:28:29;13.10;15.80
2767;DHT22;1391;46.74287300;11.63683300;2023-03-03T14:31:14;13.00;13.90
2767;DHT22;1391;46.74287300;11.63683300;2023-03-03T14:33:55;13.50;14.20
2767;DHT22;1391;46.74287300;11.63683300;2023-03-03T14:36:31;13.70;13.50
2767;DHT22;1391;46.74287300;11.63683300;2023-03-03T14:39:00;13.10;16.60
2767;DHT22;1391;46.74287300;11.63683300;2023-03-03T14:41:37;13.00;13.80
2767;DHT22;1391;46.74287300;11.63683300;2023-03-03T14:44:28;13.20;15.20
2767;DHT22;1391;46.74287300;11.63683300;2023-03-03T14:47:16;13.10;16.50
2767;DHT22;1391;46.74287300;11.63683300;2023-03-03T14:49:47;12.70;15.20
2767;DHT22;1391;46.74287300;11.63683300;2023-03-03T14:52:24;12.90;16.60
2767;DHT22;1391;46.74287300;11.63683300;2023-03-03T14:54:53;13.00;16.60
2767;DHT22;1391;46.74287300;11.63683300;2023-03-03T14:57:38;12.40;16.30
2767;DHT22;1391;46.74287300;11.63683300;2023-03-03T15:13:37;12.50;17.30
2767;DHT22;1391;46.74287300;11.63683300;2023-03-03T15:16:10;12.60;15.60
2767;DHT22;1391;46.74287300;11.63683300;2023-03-03T15:22:02;12.50;15.70
2767;DHT22;1391;46.74287300;11.63683300;2023-03-03T15:24:39;12.80;16.30
2767;DHT22;1391;46.74287300;11.63683300;2023-03-03T15:27:17;12.60;16.80
2767;DHT22;1391;46.74287300;11.63683300;2023-03-03T15:30:18;12.60;17.60